sensor_id;sensor_type;location;lat;lon;timestamp;P1;durP1;ratioP1;P2;durP2;ratioP2
59986;SDS011;46181;51.498;5.392;2023-06-10T00:04:01;11.516;;;6.748;;
59986;SDS011;46181;51.498;5.392;2023-06-10T00:08:31;7.776;;;6.412;;
59986;SDS011;46181;51.498;5.392;2023-06-10T00:13:01;7.771999;;;6.607999;;
59986;SDS011;46181;51.498;5.392;2023-06-10T00:17:31;9.872002;;;6.548;;
59986;SDS011;46181;51.498;5.392;2023-06-10T00:22:01;10.98;;;7.204;;
59986;SDS011;46181;51.498;5.392;2023-06-10T00:26:31;9.172;;;6.8;;
59986;SDS011;46181;51.498;5.392;2023-06-10T00:31:01;8.027999;;;6.684;;
59986;SDS011;46181;51.498;5.392;2023-06-10T00:35:31;8.416;;;6.755999;;
59986;SDS011;46181;51.498;5.392;2023-06-10T00:40:01;9.632;;;6.800001;;
59986;SDS011;46181;51.498;5.392;2023-06-10T00:44:31;10.26;;;7.207999;;
59986;SDS011;46181;51.498;5.392;2023-06-10T00:49:01;9.068;;;6.836;;
59986;SDS011;46181;51.498;5.392;2023-06-10T00:53:31;11.604;;;6.840001;;
59986;SDS011;46181;51.498;5.392;2023-06-10T00:58:01;7.6;;;6.839999;;
59986;SDS011;46181;51.498;5.392;2023-06-10T01:02:31;9.067998;;;6.844001;;
59986;SDS011;46181;51.498;5.392;2023-06-10T01:07:04;9.164001;;;7.280001;;
59986;SDS011;46181;51.498;5.392;2023-06-10T01:11:34;9.523999;;;7.724001;;
59986;SDS011;46181;51.498;5.392;2023-06-10T01:16:01;8.368;;;7.048;;
59986;SDS011;46181;51.498;5.392;2023-06-10T01:20:31;9.027999;;;7.424;;
59986;SDS011;46181;51.498;5.392;2023-06-10T01:25:01;8.78;;;7.296001;;
59986;SDS011;46181;51.498;5.392;2023-06-10T01:29:33;9.312;;;7.548;;
59986;SDS011;46181;51.498;5.392;2023-06-10T01:34:01;8.808;;;7.456001;;
59986;SDS011;46181;51.498;5.392;2023-06-10T01:38:32;9.488001;;;7.352;;
59986;SDS011;46181;51.498;5.392;2023-06-10T01:43:01;9.740001;;;7.231999;;
59986;SDS011;46181;51.498;5.392;2023-06-10T01:47:31;11.068;;;7.351999;;
59986;SDS011;46181;51.498;5.392;2023-06-10T01:52:01;10.308;;;7.592001;;
59986;SDS011;46181;51.498;5.392;2023-06-10T01:56:31;9.372;;;7.376001;;
59986;SDS011;46181;51.498;5.392;2023-06-10T02:01:01;9.443999;;;7.5;;
59986;SDS011;46181;51.498;5.392;2023-06-10T02:05:31;7.856001;;;7.032;;
59986;SDS011;46181;51.498;5.392;2023-06-10T02:10:01;9.983999;;;7.284;;
59986;SDS011;46181;51.498;5.392;2023-06-10T02:14:32;11.248;;;7.532;;
59986;SDS011;46181;51.498;5.392;2023-06-10T02:19:01;9.264;;;7.615999;;
59986;SDS011;46181;51.498;5.392;2023-06-10T02:23:31;9.26;;;7.332001;;
59986;SDS011;46181;51.498;5.392;2023-06-10T02:28:01;8.572001;;;7.54;;
59986;SDS011;46181;51.498;5.392;2023-06-10T02:32:31;9.700001;;;7.428;;
59986;SDS011;46181;51.498;5.392;2023-06-10T02:37:02;11.152;;;7.755998;;
59986;SDS011;46181;51.498;5.392;2023-06-10T02:41:31;10.14;;;7.568;;
59986;SDS011;46181;51.498;5.392;2023-06-10T02:46:01;8.739999;;;7.840001;;
59986;SDS011;46181;51.498;5.392;2023-06-10T02:50:31;10.1;;;8.024;;
59986;SDS011;46181;51.498;5.392;2023-06-10T02:55:01;11.992;;;8.7;;
59986;SDS011;46181;51.498;5.392;2023-06-10T02:59:31;10.684;;;8.503999;;
59986;SDS011;46181;51.498;5.392;2023-06-10T03:04:01;10.484;;;8.184;;
59986;SDS011;46181;51.498;5.392;2023-06-10T03:08:31;10.076;;;8.364;;
59986;SDS011;46181;51.498;5.392;2023-06-10T03:13:01;10.808;;;8.8;;
59986;SDS011;46181;51.498;5.392;2023-06-10T03:17:31;10.716;;;8.979999;;
59986;SDS011;46181;51.498;5.392;2023-06-10T03:22:07;11.8;;;8.951999;;
59986;SDS011;46181;51.498;5.392;2023-06-10T03:26:31;10.724;;;8.839999;;
59986;SDS011;46181;51.498;5.392;2023-06-10T03:31:01;10.164;;;9.023999;;
59986;SDS011;46181;51.498;5.392;2023-06-10T03:35:31;10.208;;;9.011999;;
59986;SDS011;46181;51.498;5.392;2023-06-10T03:40:01;11.12;;;9.259999;;
59986;SDS011;46181;51.498;5.392;2023-06-10T03:44:31;14.788;;;9.844;;
59986;SDS011;46181;51.498;5.392;2023-06-10T03:49:01;10.104;;;8.884;;
59986;SDS011;46181;51.498;5.392;2023-06-10T03:53:31;11.972;;;9.548;;
59986;SDS011;46181;51.498;5.392;2023-06-10T03:58:01;11.744;;;9.475999;;
59986;SDS011;46181;51.498;5.392;2023-06-10T04:02:31;12.604;;;9.716;;
59986;SDS011;46181;51.498;5.392;2023-06-10T04:07:02;12.288;;;9.048;;
59986;SDS011;46181;51.498;5.392;2023-06-10T04:11:31;13.204;;;9.824;;
59986;SDS011;46181;51.498;5.392;2023-06-10T04:16:01;11.98;;;9.904001;;
59986;SDS011;46181;51.498;5.392;2023-06-10T04:20:31;12.016;;;9.851998;;
59986;SDS011;46181;51.498;5.392;2023-06-10T04:25:01;11.228;;;9.683998;;
59986;SDS011;46181;51.498;5.392;2023-06-10T04:29:31;12.636;;;10.016;;
59986;SDS011;46181;51.498;5.392;2023-06-10T04:34:01;12.708;;;10.244;;
59986;SDS011;46181;51.498;5.392;2023-06-10T04:38:31;12.808;;;10.084;;
59986;SDS011;46181;51.498;5.392;2023-06-10T04:43:01;14.94;;;10.048;;
59986;SDS011;46181;51.498;5.392;2023-06-10T04:47:31;12.54;;;10.412;;
59986;SDS011;46181;51.498;5.392;2023-06-10T04:52:02;13.408;;;9.875999;;
59986;SDS011;46181;51.498;5.392;2023-06-10T04:56:31;13.184;;;9.939998;;
59986;SDS011;46181;51.498;5.392;2023-06-10T05:01:01;12.712;;;10.14;;
59986;SDS011;46181;51.498;5.392;2023-06-10T05:05:31;12.004;;;10.08;;
59986;SDS011;46181;51.498;5.392;2023-06-10T05:10:02;15.96;;;10.392;;
59986;SDS011;46181;51.498;5.392;2023-06-10T05:14:32;12.776;;;10.132;;
59986;SDS011;46181;51.498;5.392;2023-06-10T05:19:02;15.04;;;9.988001;;
59986;SDS011;46181;51.498;5.392;2023-06-10T05:23:32;12.744;;;10.028;;
59986;SDS011;46181;51.498;5.392;2023-06-10T05:28:02;12.176;;;9.740002;;
59986;SDS011;46181;51.498;5.392;2023-06-10T05:32:31;13.484;;;9.78;;
59986;SDS011;46181;51.498;5.392;2023-06-10T05:37:02;11.46;;;9.955999;;
59986;SDS011;46181;51.498;5.392;2023-06-10T05:41:31;11.948;;;9.38;;
59986;SDS011;46181;51.498;5.392;2023-06-10T05:46:02;14.5;;;9.671998;;
59986;SDS011;46181;51.498;5.392;2023-06-10T05:50:31;12.256;;;9.604;;
59986;SDS011;46181;51.498;5.392;2023-06-10T05:55:01;13.124;;;9.444001;;
59986;SDS011;46181;51.498;5.392;2023-06-10T05:59:32;12.424;;;9.012001;;
59986;SDS011;46181;51.498;5.392;2023-06-10T06:04:02;13;;;9.083999;;
59986;SDS011;46181;51.498;5.392;2023-06-10T06:08:32;12.672;;;8.928;;
59986;SDS011;46181;51.498;5.392;2023-06-10T06:13:02;11.6;;;8.403999;;
59986;SDS011;46181;51.498;5.392;2023-06-10T06:17:32;11.452;;;8.472001;;
59986;SDS011;46181;51.498;5.392;2023-06-10T06:22:02;11.728;;;8.415999;;
59986;SDS011;46181;51.498;5.392;2023-06-10T06:26:32;12.384;;;8.543999;;
59986;SDS011;46181;51.498;5.392;2023-06-10T06:31:02;14.488;;;8.403999;;
59986;SDS011;46181;51.498;5.392;2023-06-10T06:35:33;12.696;;;8.448002;;
59986;SDS011;46181;51.498;5.392;2023-06-10T06:40:02;11.496;;;8.159999;;
59986;SDS011;46181;51.498;5.392;2023-06-10T06:44:32;15.448;;;8.203999;;
59986;SDS011;46181;51.498;5.392;2023-06-10T06:49:02;10.408;;;8.008001;;
59986;SDS011;46181;51.498;5.392;2023-06-10T06:53:32;12.756;;;8.256;;
59986;SDS011;46181;51.498;5.392;2023-06-10T06:58:02;10.832;;;8.084001;;
59986;SDS011;46181;51.498;5.392;2023-06-10T07:02:32;9.475999;;;7.456001;;
59986;SDS011;46181;51.498;5.392;2023-06-10T07:07:02;10.212;;;7.647999;;
59986;SDS011;46181;51.498;5.392;2023-06-10T07:11:32;9.179999;;;7.028;;
59986;SDS011;46181;51.498;5.392;2023-06-10T07:16:02;10.436;;;7.484;;
59986;SDS011;46181;51.498;5.392;2023-06-10T07:20:32;12.02;;;7.316;;
59986;SDS011;46181;51.498;5.392;2023-06-10T07:25:02;9.792;;;7.143999;;
59986;SDS011;46181;51.498;5.392;2023-06-10T07:29:32;11.748;;;7.408;;
59986;SDS011;46181;51.498;5.392;2023-06-10T07:34:02;10.596;;;7.536;;
59986;SDS011;46181;51.498;5.392;2023-06-10T07:38:32;10.696;;;7.500001;;
59986;SDS011;46181;51.498;5.392;2023-06-10T07:43:02;9.567999;;;6.680001;;
59986;SDS011;46181;51.498;5.392;2023-06-10T07:47:32;11.972;;;7.452;;
59986;SDS011;46181;51.498;5.392;2023-06-10T07:52:02;10.908;;;7.024;;
59986;SDS011;46181;51.498;5.392;2023-06-10T07:56:32;10.428;;;7.084;;
59986;SDS011;46181;51.498;5.392;2023-06-10T08:01:02;9.352;;;6.892001;;
59986;SDS011;46181;51.498;5.392;2023-06-10T08:05:32;11.624;;;6.516001;;
59986;SDS011;46181;51.498;5.392;2023-06-10T08:10:02;12.184;;;6.896001;;
59986;SDS011;46181;51.498;5.392;2023-06-10T08:14:32;11.02;;;6.908001;;
59986;SDS011;46181;51.498;5.392;2023-06-10T08:19:02;9.156;;;6.715998;;
59986;SDS011;46181;51.498;5.392;2023-06-10T08:23:32;9.168;;;6.512;;
59986;SDS011;46181;51.498;5.392;2023-06-10T08:28:02;9.468002;;;6.032;;
59986;SDS011;46181;51.498;5.392;2023-06-10T08:32:32;9.228;;;6.004001;;
59986;SDS011;46181;51.498;5.392;2023-06-10T08:37:02;10.408;;;6.075999;;
59986;SDS011;46181;51.498;5.392;2023-06-10T08:41:32;7.191999;;;6.032001;;
59986;SDS011;46181;51.498;5.392;2023-06-10T08:46:02;8.400001;;;5.940001;;
59986;SDS011;46181;51.498;5.392;2023-06-10T08:50:32;8.651999;;;5.924;;
59986;SDS011;46181;51.498;5.392;2023-06-10T08:55:02;8.899999;;;6.052;;
59986;SDS011;46181;51.498;5.392;2023-06-10T08:59:32;8.992001;;;5.78;;
59986;SDS011;46181;51.498;5.392;2023-06-10T09:04:02;8.432001;;;5.527999;;
59986;SDS011;46181;51.498;5.392;2023-06-10T09:08:32;7.840001;;;5.800001;;
59986;SDS011;46181;51.498;5.392;2023-06-10T09:13:02;7.952001;;;5.796001;;
59986;SDS011;46181;51.498;5.392;2023-06-10T09:17:32;8.664;;;5.344;;
59986;SDS011;46181;51.498;5.392;2023-06-10T09:22:02;7.832001;;;5.691999;;
59986;SDS011;46181;51.498;5.392;2023-06-10T09:26:32;7.352002;;;5.579999;;
59986;SDS011;46181;51.498;5.392;2023-06-10T09:31:06;6.828001;;;5.179999;;
59986;SDS011;46181;51.498;5.392;2023-06-10T09:35:32;7.896;;;5.195999;;
59986;SDS011;46181;51.498;5.392;2023-06-10T09:40:06;8.112001;;;5.264;;
59986;SDS011;46181;51.498;5.392;2023-06-10T09:44:32;6.848001;;;5.292001;;
59986;SDS011;46181;51.498;5.392;2023-06-10T09:49:02;8.440002;;;5.248001;;
59986;SDS011;46181;51.498;5.392;2023-06-10T09:53:32;6.62;;;4.876;;
59986;SDS011;46181;51.498;5.392;2023-06-10T09:58:02;11.752;;;5.284;;
59986;SDS011;46181;51.498;5.392;2023-06-10T10:02:32;7.716;;;4.932;;
59986;SDS011;46181;51.498;5.392;2023-06-10T10:07:02;7.527998;;;5.548;;
59986;SDS011;46181;51.498;5.392;2023-06-10T10:11:32;7.42;;;5.488;;
59986;SDS011;46181;51.498;5.392;2023-06-10T10:16:04;7.232001;;;5.155999;;
59986;SDS011;46181;51.498;5.392;2023-06-10T10:20:33;8.712002;;;5.404;;
59986;SDS011;46181;51.498;5.392;2023-06-10T10:25:02;7.548;;;5.704;;
59986;SDS011;46181;51.498;5.392;2023-06-10T10:29:33;8.951998;;;5.288;;
59986;SDS011;46181;51.498;5.392;2023-06-10T10:34:02;6.748001;;;5.408;;
59986;SDS011;46181;51.498;5.392;2023-06-10T10:38:32;7.039999;;;5.256001;;
59986;SDS011;46181;51.498;5.392;2023-06-10T10:43:02;6.799999;;;5.216;;
59986;SDS011;46181;51.498;5.392;2023-06-10T10:47:32;7.496;;;5.424;;
59986;SDS011;46181;51.498;5.392;2023-06-10T10:52:02;6.58;;;5.324001;;
59986;SDS011;46181;51.498;5.392;2023-06-10T10:56:32;7.283999;;;5.607999;;
59986;SDS011;46181;51.498;5.392;2023-06-10T11:01:02;8.232001;;;5.304;;
59986;SDS011;46181;51.498;5.392;2023-06-10T11:05:35;8.728001;;;5.508;;
59986;SDS011;46181;51.498;5.392;2023-06-10T11:10:03;7.976;;;5.464001;;
59986;SDS011;46181;51.498;5.392;2023-06-10T11:14:32;10.252;;;5.707999;;
59986;SDS011;46181;51.498;5.392;2023-06-10T11:19:02;6.679999;;;5.300001;;
59986;SDS011;46181;51.498;5.392;2023-06-10T11:23:38;7.900001;;;5.356001;;
59986;SDS011;46181;51.498;5.392;2023-06-10T11:28:02;8.752002;;;5.488;;
59986;SDS011;46181;51.498;5.392;2023-06-10T11:32:33;10.716;;;5.608;;
59986;SDS011;46181;51.498;5.392;2023-06-10T11:37:02;7.728001;;;5.191999;;
59986;SDS011;46181;51.498;5.392;2023-06-10T11:41:32;8.184;;;5.587999;;
59986;SDS011;46181;51.498;5.392;2023-06-10T11:46:02;7.699999;;;5.384001;;
59986;SDS011;46181;51.498;5.392;2023-06-10T11:50:33;7.547999;;;5.48;;
59986;SDS011;46181;51.498;5.392;2023-06-10T11:55:02;7.704001;;;4.900001;;
59986;SDS011;46181;51.498;5.392;2023-06-10T11:59:32;7.66;;;5.372001;;
59986;SDS011;46181;51.498;5.392;2023-06-10T12:04:03;6.807999;;;5.228;;
59986;SDS011;46181;51.498;5.392;2023-06-10T12:08:32;6.663999;;;5.336001;;
59986;SDS011;46181;51.498;5.392;2023-06-10T12:13:02;6.179998;;;5.364;;
59986;SDS011;46181;51.498;5.392;2023-06-10T12:17:42;8.175999;;;5.496;;
59986;SDS011;46181;51.498;5.392;2023-06-10T12:22:04;7.308001;;;5.567999;;
59986;SDS011;46181;51.498;5.392;2023-06-10T12:26:42;7.783999;;;5.816001;;
59986;SDS011;46181;51.498;5.392;2023-06-10T12:31:09;8.783999;;;5.707999;;
59986;SDS011;46181;51.498;5.392;2023-06-10T12:35:32;7.036;;;5.404;;
59986;SDS011;46181;51.498;5.392;2023-06-10T12:40:02;9.187999;;;5.208;;
59986;SDS011;46181;51.498;5.392;2023-06-10T12:44:33;7.016;;;5.724;;
59986;SDS011;46181;51.498;5.392;2023-06-10T12:49:02;6.147999;;;4.972;;
59986;SDS011;46181;51.498;5.392;2023-06-10T12:53:32;9.732;;;5.272;;
59986;SDS011;46181;51.498;5.392;2023-06-10T12:58:02;6.896;;;5.111999;;
59986;SDS011;46181;51.498;5.392;2023-06-10T13:02:32;8.360001;;;5.103998;;
59986;SDS011;46181;51.498;5.392;2023-06-10T13:07:02;6.728002;;;5.124;;
59986;SDS011;46181;51.498;5.392;2023-06-10T13:11:32;8.788;;;5.300001;;
59986;SDS011;46181;51.498;5.392;2023-06-10T13:16:02;9.912001;;;6.26;;
59986;SDS011;46181;51.498;5.392;2023-06-10T13:20:32;7.272001;;;5.248;;
59986;SDS011;46181;51.498;5.392;2023-06-10T13:25:02;8.996;;;5.432001;;
59986;SDS011;46181;51.498;5.392;2023-06-10T13:29:32;6.231999;;;5.027999;;
59986;SDS011;46181;51.498;5.392;2023-06-10T13:34:02;8.132;;;5.272;;
59986;SDS011;46181;51.498;5.392;2023-06-10T13:38:32;7.784;;;4.900001;;
59986;SDS011;46181;51.498;5.392;2023-06-10T13:43:02;7.771999;;;4.932;;
59986;SDS011;46181;51.498;5.392;2023-06-10T13:47:32;8.644;;;5.095999;;
59986;SDS011;46181;51.498;5.392;2023-06-10T13:52:02;7.215999;;;5.356;;
59986;SDS011;46181;51.498;5.392;2023-06-10T13:56:32;10.172;;;5.460001;;
59986;SDS011;46181;51.498;5.392;2023-06-10T14:01:02;6.671999;;;5.224;;
59986;SDS011;46181;51.498;5.392;2023-06-10T14:05:32;6.759999;;;5.259999;;
59986;SDS011;46181;51.498;5.392;2023-06-10T14:10:02;10.32;;;5.187999;;
59986;SDS011;46181;51.498;5.392;2023-06-10T14:14:32;6.876;;;5.208;;
59986;SDS011;46181;51.498;5.392;2023-06-10T14:19:02;7.800001;;;5.512;;
59986;SDS011;46181;51.498;5.392;2023-06-10T14:23:32;7.528002;;;5.244001;;
59986;SDS011;46181;51.498;5.392;2023-06-10T14:28:02;7.507999;;;5.348001;;
59986;SDS011;46181;51.498;5.392;2023-06-10T14:32:32;6.948;;;5.844;;
59986;SDS011;46181;51.498;5.392;2023-06-10T14:37:02;7.712;;;5.412;;
59986;SDS011;46181;51.498;5.392;2023-06-10T14:41:32;7.684001;;;5.216;;
59986;SDS011;46181;51.498;5.392;2023-06-10T14:46:02;8.352001;;;5.840001;;
59986;SDS011;46181;51.498;5.392;2023-06-10T14:50:32;7.039999;;;5.492;;
59986;SDS011;46181;51.498;5.392;2023-06-10T14:55:02;9.432001;;;5.352001;;
59986;SDS011;46181;51.498;5.392;2023-06-10T14:59:32;8.459999;;;5.284;;
59986;SDS011;46181;51.498;5.392;2023-06-10T15:04:02;8.039997;;;5.316;;
59986;SDS011;46181;51.498;5.392;2023-06-10T15:08:32;6.599999;;;5.320001;;
59986;SDS011;46181;51.498;5.392;2023-06-10T15:13:02;10.524;;;7.436001;;
59986;SDS011;46181;51.498;5.392;2023-06-10T15:17:32;8.012001;;;4.864;;
59986;SDS011;46181;51.498;5.392;2023-06-10T15:22:02;7.203999;;;5.687999;;
59986;SDS011;46181;51.498;5.392;2023-06-10T15:26:32;6.211999;;;5.503999;;
59986;SDS011;46181;51.498;5.392;2023-06-10T15:31:02;7.107999;;;5.203999;;
59986;SDS011;46181;51.498;5.392;2023-06-10T15:35:32;9.719999;;;6.312001;;
59986;SDS011;46181;51.498;5.392;2023-06-10T15:40:02;7.288001;;;5.272001;;
59986;SDS011;46181;51.498;5.392;2023-06-10T15:44:32;9.888;;;7.144;;
59986;SDS011;46181;51.498;5.392;2023-06-10T15:49:02;6.859999;;;5.420001;;
59986;SDS011;46181;51.498;5.392;2023-06-10T15:53:32;7.920001;;;5.516;;
59986;SDS011;46181;51.498;5.392;2023-06-10T15:58:02;7.160001;;;5.376;;
59986;SDS011;46181;51.498;5.392;2023-06-10T16:02:32;7.76;;;5.671999;;
59986;SDS011;46181;51.498;5.392;2023-06-10T16:07:02;6.644;;;5.748001;;
59986;SDS011;46181;51.498;5.392;2023-06-10T16:11:32;11.824;;;6.251999;;
59986;SDS011;46181;51.498;5.392;2023-06-10T16:16:02;6.704;;;5.936001;;
59986;SDS011;46181;51.498;5.392;2023-06-10T16:20:32;8.18;;;5.432001;;
59986;SDS011;46181;51.498;5.392;2023-06-10T16:25:02;6.808001;;;5.860001;;
59986;SDS011;46181;51.498;5.392;2023-06-10T16:29:32;9.007999;;;5.655999;;
59986;SDS011;46181;51.498;5.392;2023-06-10T16:34:02;9.368001;;;6.055999;;
59986;SDS011;46181;51.498;5.392;2023-06-10T16:38:32;7.747999;;;5.836;;
59986;SDS011;46181;51.498;5.392;2023-06-10T16:43:02;7.2;;;5.932;;
59986;SDS011;46181;51.498;5.392;2023-06-10T16:47:32;7.864;;;5.724;;
59986;SDS011;46181;51.498;5.392;2023-06-10T16:52:02;6.224;;;5.348001;;
59986;SDS011;46181;51.498;5.392;2023-06-10T16:56:32;8.464001;;;5.968;;
59986;SDS011;46181;51.498;5.392;2023-06-10T17:01:04;7.708;;;5.464001;;
59986;SDS011;46181;51.498;5.392;2023-06-10T17:05:32;10.124;;;6.324;;
59986;SDS011;46181;51.498;5.392;2023-06-10T17:10:02;8.044;;;6.648;;
59986;SDS011;46181;51.498;5.392;2023-06-10T17:14:32;7.552001;;;6.195999;;
59986;SDS011;46181;51.498;5.392;2023-06-10T17:19:02;9.019999;;;5.759999;;
59986;SDS011;46181;51.498;5.392;2023-06-10T17:23:32;9.507997;;;5.699999;;
59986;SDS011;46181;51.498;5.392;2023-06-10T17:28:02;6.592;;;5.788001;;
59986;SDS011;46181;51.498;5.392;2023-06-10T17:32:32;15.724;;;10.764;;
59986;SDS011;46181;51.498;5.392;2023-06-10T17:37:02;7.54;;;5.715999;;
59986;SDS011;46181;51.498;5.392;2023-06-10T17:41:32;9.691999;;;5.631999;;
59986;SDS011;46181;51.498;5.392;2023-06-10T17:46:02;8.763999;;;5.663999;;
59986;SDS011;46181;51.498;5.392;2023-06-10T17:50:32;7.452002;;;5.456001;;
59986;SDS011;46181;51.498;5.392;2023-06-10T17:55:03;6.52;;;5.356;;
59986;SDS011;46181;51.498;5.392;2023-06-10T17:59:32;8.672;;;5.464001;;
59986;SDS011;46181;51.498;5.392;2023-06-10T18:04:03;6.952;;;5.164;;
59986;SDS011;46181;51.498;5.392;2023-06-10T18:08:32;7.364001;;;5.852001;;
59986;SDS011;46181;51.498;5.392;2023-06-10T18:13:02;8.336001;;;5.784001;;
59986;SDS011;46181;51.498;5.392;2023-06-10T18:17:32;8.648;;;5.572;;
59986;SDS011;46181;51.498;5.392;2023-06-10T18:22:02;8.440001;;;5.796001;;
59986;SDS011;46181;51.498;5.392;2023-06-10T18:26:32;7.828001;;;5.571999;;
59986;SDS011;46181;51.498;5.392;2023-06-10T18:31:02;7.776;;;5.512;;
59986;SDS011;46181;51.498;5.392;2023-06-10T18:35:32;9.700001;;;5.528;;
59986;SDS011;46181;51.498;5.392;2023-06-10T18:40:02;7.771999;;;6.071999;;
59986;SDS011;46181;51.498;5.392;2023-06-10T18:44:32;7.088001;;;5.220001;;
59986;SDS011;46181;51.498;5.392;2023-06-10T18:49:02;7.148;;;5.227999;;
59986;SDS011;46181;51.498;5.392;2023-06-10T18:53:32;7.916;;;5.58;;
59986;SDS011;46181;51.498;5.392;2023-06-10T18:58:02;6.811999;;;5.304001;;
59986;SDS011;46181;51.498;5.392;2023-06-10T19:02:32;8.003999;;;5.340001;;
59986;SDS011;46181;51.498;5.392;2023-06-10T19:07:02;6.648;;;5.508;;
59986;SDS011;46181;51.498;5.392;2023-06-10T19:11:32;6.52;;;5.456;;
59986;SDS011;46181;51.498;5.392;2023-06-10T19:16:02;8.999999;;;5.687999;;
59986;SDS011;46181;51.498;5.392;2023-06-10T19:20:35;9.3;;;5.300001;;
59986;SDS011;46181;51.498;5.392;2023-06-10T19:25:03;7.448001;;;5.288001;;
59986;SDS011;46181;51.498;5.392;2023-06-10T19:29:32;7.331999;;;4.948;;
59986;SDS011;46181;51.498;5.392;2023-06-10T19:34:02;7.264;;;5.256001;;
59986;SDS011;46181;51.498;5.392;2023-06-10T19:38:32;8.684;;;5.587999;;
59986;SDS011;46181;51.498;5.392;2023-06-10T19:43:02;6.388;;;5.288001;;
59986;SDS011;46181;51.498;5.392;2023-06-10T19:47:32;8.952001;;;5.512;;
59986;SDS011;46181;51.498;5.392;2023-06-10T19:52:02;7.231999;;;5.272001;;
59986;SDS011;46181;51.498;5.392;2023-06-10T19:56:32;7.34;;;5.464;;
59986;SDS011;46181;51.498;5.392;2023-06-10T20:01:02;7.348002;;;5.400001;;
59986;SDS011;46181;51.498;5.392;2023-06-10T20:05:32;6.807999;;;5.348;;
59986;SDS011;46181;51.498;5.392;2023-06-10T20:10:02;8.191999;;;5.579999;;
59986;SDS011;46181;51.498;5.392;2023-06-10T20:14:32;8.448001;;;6.44;;
59986;SDS011;46181;51.498;5.392;2023-06-10T20:19:02;8.216001;;;5.472;;
59986;SDS011;46181;51.498;5.392;2023-06-10T20:23:32;7.984001;;;5.936001;;
59986;SDS011;46181;51.498;5.392;2023-06-10T20:28:03;7.652;;;5.928;;
59986;SDS011;46181;51.498;5.392;2023-06-10T20:32:32;8.516001;;;5.699999;;
59986;SDS011;46181;51.498;5.392;2023-06-10T20:37:02;9.968001;;;5.707999;;
59986;SDS011;46181;51.498;5.392;2023-06-10T20:41:32;7.211999;;;5.472;;
59986;SDS011;46181;51.498;5.392;2023-06-10T20:46:02;9.768;;;5.852002;;
59986;SDS011;46181;51.498;5.392;2023-06-10T20:50:32;6.848002;;;5.611999;;
59986;SDS011;46181;51.498;5.392;2023-06-10T20:55:02;7.203999;;;5.920001;;
59986;SDS011;46181;51.498;5.392;2023-06-10T20:59:32;10.432;;;5.671999;;
59986;SDS011;46181;51.498;5.392;2023-06-10T21:04:02;9.291999;;;5.652;;
59986;SDS011;46181;51.498;5.392;2023-06-10T21:08:32;8.400001;;;5.679999;;
59986;SDS011;46181;51.498;5.392;2023-06-10T21:13:02;8.7;;;5.671999;;
59986;SDS011;46181;51.498;5.392;2023-06-10T21:17:32;10.86;;;5.932001;;
59986;SDS011;46181;51.498;5.392;2023-06-10T21:22:02;6.996;;;5.584;;
59986;SDS011;46181;51.498;5.392;2023-06-10T21:26:32;12.168;;;5.516;;
59986;SDS011;46181;51.498;5.392;2023-06-10T21:31:02;7.596001;;;5.707999;;
59986;SDS011;46181;51.498;5.392;2023-06-10T21:35:32;9.34;;;5.524;;
59986;SDS011;46181;51.498;5.392;2023-06-10T21:40:02;8.536001;;;5.928;;
59986;SDS011;46181;51.498;5.392;2023-06-10T21:44:32;8.868;;;5.972001;;
59986;SDS011;46181;51.498;5.392;2023-06-10T21:49:02;9.063999;;;5.964002;;
59986;SDS011;46181;51.498;5.392;2023-06-10T21:53:32;7.072;;;5.904001;;
59986;SDS011;46181;51.498;5.392;2023-06-10T21:58:02;9.291999;;;5.796001;;
59986;SDS011;46181;51.498;5.392;2023-06-10T22:02:32;8.403999;;;6.231999;;
59986;SDS011;46181;51.498;5.392;2023-06-10T22:07:02;11.024;;;6.267999;;
59986;SDS011;46181;51.498;5.392;2023-06-10T22:11:32;7.472002;;;5.98;;
59986;SDS011;46181;51.498;5.392;2023-06-10T22:16:02;7.536;;;6.124;;
59986;SDS011;46181;51.498;5.392;2023-06-10T22:20:32;9.128;;;6.103999;;
59986;SDS011;46181;51.498;5.392;2023-06-10T22:25:03;9.928;;;6.087999;;
59986;SDS011;46181;51.498;5.392;2023-06-10T22:29:32;8.495999;;;6.079999;;
59986;SDS011;46181;51.498;5.392;2023-06-10T22:34:02;9.512001;;;6.352001;;
59986;SDS011;46181;51.498;5.392;2023-06-10T22:38:32;9.676001;;;6.196001;;
59986;SDS011;46181;51.498;5.392;2023-06-10T22:43:02;8.836;;;6.603999;;
59986;SDS011;46181;51.498;5.392;2023-06-10T22:47:32;9.055999;;;6.464;;
59986;SDS011;46181;51.498;5.392;2023-06-10T22:52:03;8.011998;;;5.948;;
59986;SDS011;46181;51.498;5.392;2023-06-10T22:56:32;8.64;;;6.02;;
59986;SDS011;46181;51.498;5.392;2023-06-10T23:01:02;9.520001;;;6.3;;
59986;SDS011;46181;51.498;5.392;2023-06-10T23:05:32;8.196;;;6.360001;;
59986;SDS011;46181;51.498;5.392;2023-06-10T23:10:03;9.956001;;;6.187999;;
59986;SDS011;46181;51.498;5.392;2023-06-10T23:14:32;8.683999;;;6.336;;
59986;SDS011;46181;51.498;5.392;2023-06-10T23:19:02;8.900001;;;6.179999;;
59986;SDS011;46181;51.498;5.392;2023-06-10T23:23:32;8.724;;;6.404;;
59986;SDS011;46181;51.498;5.392;2023-06-10T23:28:02;9.156;;;6.643999;;
59986;SDS011;46181;51.498;5.392;2023-06-10T23:32:32;9.287999;;;6.564001;;
59986;SDS011;46181;51.498;5.392;2023-06-10T23:37:02;10.796;;;6.623999;;
59986;SDS011;46181;51.498;5.392;2023-06-10T23:41:32;10.772;;;6.595999;;
59986;SDS011;46181;51.498;5.392;2023-06-10T23:46:02;11.776;;;6.868001;;
59986;SDS011;46181;51.498;5.392;2023-06-10T23:50:32;9.204;;;6.468;;
59986;SDS011;46181;51.498;5.392;2023-06-10T23:55:02;10.58;;;7.02;;
59986;SDS011;46181;51.498;5.392;2023-06-10T23:59:32;9.167999;;;6.595999;;
